sensor_id;sensor_type;location;lat;lon;timestamp;P1;durP1;ratioP1;P2;durP2;ratioP2
55372;SDS011;70018;47.838;16.490;2024-02-23T00:01:07;0.32;;;0.28;;
55372;SDS011;70018;47.838;16.490;2024-02-23T00:03:34;0.30;;;0.30;;
55372;SDS011;70018;47.838;16.490;2024-02-23T00:06:02;0.28;;;0.28;;
55372;SDS011;70018;47.838;16.490;2024-02-23T00:08:29;0.30;;;0.30;;
55372;SDS011;70018;47.838;16.490;2024-02-23T00:10:56;0.17;;;0.17;;
55372;SDS011;70018;47.838;16.490;2024-02-23T00:13:23;0.40;;;0.40;;
55372;SDS011;70018;47.838;16.490;2024-02-23T00:15:49;0.28;;;0.20;;
55372;SDS011;70018;47.838;16.490;2024-02-23T00:18:16;0.30;;;0.30;;
55372;SDS011;70018;47.838;16.490;2024-02-23T00:20:43;0.32;;;0.30;;
55372;SDS011;70018;47.838;16.490;2024-02-23T00:23:10;0.55;;;0.38;;
55372;SDS011;70018;47.838;16.490;2024-02-23T00:25:37;0.30;;;0.30;;
55372;SDS011;70018;47.838;16.490;2024-02-23T00:28:04;0.22;;;0.22;;
55372;SDS011;70018;47.838;16.490;2024-02-23T00:30:31;0.47;;;0.30;;
55372;SDS011;70018;47.838;16.490;2024-02-23T00:32:57;0.40;;;0.35;;
55372;SDS011;70018;47.838;16.490;2024-02-23T00:35:24;0.22;;;0.20;;
55372;SDS011;70018;47.838;16.490;2024-02-23T00:37:51;0.30;;;0.30;;
55372;SDS011;70018;47.838;16.490;2024-02-23T00:40:18;0.80;;;0.40;;
55372;SDS011;70018;47.838;16.490;2024-02-23T00:42:45;0.10;;;0.10;;
55372;SDS011;70018;47.838;16.490;2024-02-23T00:45:11;0.20;;;0.20;;
55372;SDS011;70018;47.838;16.490;2024-02-23T00:47:38;0.55;;;0.32;;
55372;SDS011;70018;47.838;16.490;2024-02-23T00:50:05;0.20;;;0.20;;
55372;SDS011;70018;47.838;16.490;2024-02-23T00:52:32;0.28;;;0.28;;
55372;SDS011;70018;47.838;16.490;2024-02-23T00:54:59;0.25;;;0.25;;
55372;SDS011;70018;47.838;16.490;2024-02-23T00:57:26;0.20;;;0.20;;
55372;SDS011;70018;47.838;16.490;2024-02-23T00:59:57;0.15;;;0.15;;
55372;SDS011;70018;47.838;16.490;2024-02-23T01:02:24;0.17;;;0.17;;
55372;SDS011;70018;47.838;16.490;2024-02-23T01:04:50;0.25;;;0.20;;
55372;SDS011;70018;47.838;16.490;2024-02-23T01:07:23;0.32;;;0.32;;
55372;SDS011;70018;47.838;16.490;2024-02-23T01:09:50;0.38;;;0.30;;
55372;SDS011;70018;47.838;16.490;2024-02-23T01:12:16;0.85;;;0.17;;
55372;SDS011;70018;47.838;16.490;2024-02-23T01:14:43;0.30;;;0.25;;
55372;SDS011;70018;47.838;16.490;2024-02-23T01:17:10;0.20;;;0.20;;
55372;SDS011;70018;47.838;16.490;2024-02-23T01:19:37;0.10;;;0.10;;
55372;SDS011;70018;47.838;16.490;2024-02-23T01:22:04;0.20;;;0.20;;
55372;SDS011;70018;47.838;16.490;2024-02-23T01:24:30;0.20;;;0.20;;
55372;SDS011;70018;47.838;16.490;2024-02-23T01:26:57;0.10;;;0.10;;
55372;SDS011;70018;47.838;16.490;2024-02-23T01:29:25;0.10;;;0.10;;
55372;SDS011;70018;47.838;16.490;2024-02-23T01:31:52;0.30;;;0.20;;
55372;SDS011;70018;47.838;16.490;2024-02-23T01:34:21;0.77;;;0.40;;
55372;SDS011;70018;47.838;16.490;2024-02-23T01:36:48;0.30;;;0.10;;
55372;SDS011;70018;47.838;16.490;2024-02-23T01:39:15;0.20;;;0.20;;
55372;SDS011;70018;47.838;16.490;2024-02-23T01:41:41;0.10;;;0.10;;
55372;SDS011;70018;47.838;16.490;2024-02-23T01:44:10;0.45;;;0.30;;
55372;SDS011;70018;47.838;16.490;2024-02-23T01:46:37;0.10;;;0.10;;
55372;SDS011;70018;47.838;16.490;2024-02-23T01:49:07;0.32;;;0.30;;
55372;SDS011;70018;47.838;16.490;2024-02-23T01:51:34;0.25;;;0.25;;
55372;SDS011;70018;47.838;16.490;2024-02-23T01:54:02;0.20;;;0.20;;
55372;SDS011;70018;47.838;16.490;2024-02-23T01:56:29;0.38;;;0.28;;
55372;SDS011;70018;47.838;16.490;2024-02-23T01:58:57;0.28;;;0.28;;
55372;SDS011;70018;47.838;16.490;2024-02-23T02:01:25;0.50;;;0.20;;
55372;SDS011;70018;47.838;16.490;2024-02-23T02:03:52;0.20;;;0.20;;
55372;SDS011;70018;47.838;16.490;2024-02-23T02:06:19;0.10;;;0.10;;
55372;SDS011;70018;47.838;16.490;2024-02-23T02:08:46;0.50;;;0.30;;
55372;SDS011;70018;47.838;16.490;2024-02-23T02:11:12;0.13;;;0.13;;
55372;SDS011;70018;47.838;16.490;2024-02-23T02:13:39;0.10;;;0.10;;
55372;SDS011;70018;47.838;16.490;2024-02-23T02:16:06;0.60;;;0.20;;
55372;SDS011;70018;47.838;16.490;2024-02-23T02:18:33;0.40;;;0.20;;
55372;SDS011;70018;47.838;16.490;2024-02-23T02:20:59;0.20;;;0.20;;
55372;SDS011;70018;47.838;16.490;2024-02-23T02:23:27;0.10;;;0.10;;
55372;SDS011;70018;47.838;16.490;2024-02-23T02:25:54;0.30;;;0.30;;
55372;SDS011;70018;47.838;16.490;2024-02-23T02:28:22;0.25;;;0.20;;
55372;SDS011;70018;47.838;16.490;2024-02-23T02:30:50;0.10;;;0.10;;
55372;SDS011;70018;47.838;16.490;2024-02-23T02:33:19;0.60;;;0.28;;
55372;SDS011;70018;47.838;16.490;2024-02-23T02:35:46;0.20;;;0.20;;
55372;SDS011;70018;47.838;16.490;2024-02-23T02:38:12;0.20;;;0.20;;
55372;SDS011;70018;47.838;16.490;2024-02-23T02:40:40;0.22;;;0.20;;
55372;SDS011;70018;47.838;16.490;2024-02-23T02:43:06;0.30;;;0.30;;
55372;SDS011;70018;47.838;16.490;2024-02-23T02:45:33;0.10;;;0.10;;
55372;SDS011;70018;47.838;16.490;2024-02-23T02:48:00;0.10;;;0.10;;
55372;SDS011;70018;47.838;16.490;2024-02-23T02:50:30;0.20;;;0.20;;
55372;SDS011;70018;47.838;16.490;2024-02-23T02:52:57;0.15;;;0.15;;
55372;SDS011;70018;47.838;16.490;2024-02-23T02:55:24;0.20;;;0.20;;
55372;SDS011;70018;47.838;16.490;2024-02-23T02:57:51;0.28;;;0.15;;
55372;SDS011;70018;47.838;16.490;2024-02-23T03:00:17;0.32;;;0.30;;
55372;SDS011;70018;47.838;16.490;2024-02-23T03:02:44;0.10;;;0.10;;
55372;SDS011;70018;47.838;16.490;2024-02-23T03:05:11;0.10;;;0.10;;
55372;SDS011;70018;47.838;16.490;2024-02-23T03:07:38;0.20;;;0.20;;
55372;SDS011;70018;47.838;16.490;2024-02-23T03:10:04;0.03;;;0.03;;
55372;SDS011;70018;47.838;16.490;2024-02-23T03:12:32;0.20;;;0.20;;
55372;SDS011;70018;47.838;16.490;2024-02-23T03:14:58;0.20;;;0.20;;
55372;SDS011;70018;47.838;16.490;2024-02-23T03:17:25;0.17;;;0.17;;
55372;SDS011;70018;47.838;16.490;2024-02-23T03:19:52;0.10;;;0.10;;
55372;SDS011;70018;47.838;16.490;2024-02-23T03:22:19;0.10;;;0.10;;
55372;SDS011;70018;47.838;16.490;2024-02-23T03:24:46;0.10;;;0.10;;
55372;SDS011;70018;47.838;16.490;2024-02-23T03:27:12;0.28;;;0.15;;
55372;SDS011;70018;47.838;16.490;2024-02-23T03:29:40;0.10;;;0.10;;
55372;SDS011;70018;47.838;16.490;2024-02-23T03:32:07;0.15;;;0.15;;
55372;SDS011;70018;47.838;16.490;2024-02-23T03:34:34;0.20;;;0.20;;
55372;SDS011;70018;47.838;16.490;2024-02-23T03:37:02;0.15;;;0.15;;
55372;SDS011;70018;47.838;16.490;2024-02-23T03:39:29;0.10;;;0.10;;
55372;SDS011;70018;47.838;16.490;2024-02-23T03:41:56;0.00;;;0.00;;
55372;SDS011;70018;47.838;16.490;2024-02-23T03:44:22;0.30;;;0.20;;
55372;SDS011;70018;47.838;16.490;2024-02-23T03:46:50;0.32;;;0.10;;
55372;SDS011;70018;47.838;16.490;2024-02-23T03:49:16;0.08;;;0.08;;
55372;SDS011;70018;47.838;16.490;2024-02-23T03:51:43;1.02;;;0.65;;
55372;SDS011;70018;47.838;16.490;2024-02-23T03:54:10;0.85;;;0.75;;
55372;SDS011;70018;47.838;16.490;2024-02-23T03:56:38;0.45;;;0.30;;
55372;SDS011;70018;47.838;16.490;2024-02-23T03:59:06;0.20;;;0.20;;
55372;SDS011;70018;47.838;16.490;2024-02-23T04:01:36;0.20;;;0.20;;
55372;SDS011;70018;47.838;16.490;2024-02-23T04:04:03;0.10;;;0.10;;
55372;SDS011;70018;47.838;16.490;2024-02-23T04:06:30;0.10;;;0.10;;
55372;SDS011;70018;47.838;16.490;2024-02-23T04:08:57;0.00;;;0.00;;
55372;SDS011;70018;47.838;16.490;2024-02-23T04:11:24;0.13;;;0.13;;
55372;SDS011;70018;47.838;16.490;2024-02-23T04:13:51;0.10;;;0.10;;
55372;SDS011;70018;47.838;16.490;2024-02-23T04:16:21;0.10;;;0.10;;
55372;SDS011;70018;47.838;16.490;2024-02-23T04:18:50;0.20;;;0.20;;
55372;SDS011;70018;47.838;16.490;2024-02-23T04:21:17;0.38;;;0.10;;
55372;SDS011;70018;47.838;16.490;2024-02-23T04:23:43;0.22;;;0.22;;
55372;SDS011;70018;47.838;16.490;2024-02-23T04:26:10;0.20;;;0.20;;
55372;SDS011;70018;47.838;16.490;2024-02-23T04:28:40;0.35;;;0.20;;
55372;SDS011;70018;47.838;16.490;2024-02-23T04:31:08;0.20;;;0.20;;
55372;SDS011;70018;47.838;16.490;2024-02-23T04:33:36;0.22;;;0.20;;
55372;SDS011;70018;47.838;16.490;2024-02-23T04:36:03;0.20;;;0.20;;
55372;SDS011;70018;47.838;16.490;2024-02-23T04:38:31;0.20;;;0.20;;
55372;SDS011;70018;47.838;16.490;2024-02-23T04:40:58;0.20;;;0.20;;
55372;SDS011;70018;47.838;16.490;2024-02-23T04:43:25;1.15;;;0.40;;
55372;SDS011;70018;47.838;16.490;2024-02-23T04:45:52;0.47;;;0.43;;
55372;SDS011;70018;47.838;16.490;2024-02-23T04:48:18;0.40;;;0.40;;
55372;SDS011;70018;47.838;16.490;2024-02-23T04:50:45;0.30;;;0.30;;
55372;SDS011;70018;47.838;16.490;2024-02-23T04:53:12;1.17;;;0.50;;
55372;SDS011;70018;47.838;16.490;2024-02-23T04:55:38;0.70;;;0.60;;
55372;SDS011;70018;47.838;16.490;2024-02-23T04:58:05;0.63;;;0.50;;
55372;SDS011;70018;47.838;16.490;2024-02-23T05:00:32;0.40;;;0.40;;
55372;SDS011;70018;47.838;16.490;2024-02-23T05:03:00;0.80;;;0.60;;
55372;SDS011;70018;47.838;16.490;2024-02-23T05:05:30;1.00;;;0.65;;
55372;SDS011;70018;47.838;16.490;2024-02-23T05:07:58;1.58;;;0.85;;
55372;SDS011;70018;47.838;16.490;2024-02-23T05:10:25;1.63;;;0.80;;
55372;SDS011;70018;47.838;16.490;2024-02-23T05:12:53;1.02;;;0.80;;
55372;SDS011;70018;47.838;16.490;2024-02-23T05:15:19;1.05;;;0.90;;
55372;SDS011;70018;47.838;16.490;2024-02-23T05:17:46;0.82;;;0.73;;
55372;SDS011;70018;47.838;16.490;2024-02-23T05:20:13;1.25;;;0.60;;
55372;SDS011;70018;47.838;16.490;2024-02-23T05:22:40;0.40;;;0.40;;
55372;SDS011;70018;47.838;16.490;2024-02-23T05:25:07;1.08;;;0.68;;
55372;SDS011;70018;47.838;16.490;2024-02-23T05:27:34;0.88;;;0.50;;
55372;SDS011;70018;47.838;16.490;2024-02-23T05:30:01;0.60;;;0.47;;
55372;SDS011;70018;47.838;16.490;2024-02-23T05:32:27;0.90;;;0.45;;
55372;SDS011;70018;47.838;16.490;2024-02-23T05:34:54;0.30;;;0.30;;
55372;SDS011;70018;47.838;16.490;2024-02-23T05:37:23;0.22;;;0.22;;
55372;SDS011;70018;47.838;16.490;2024-02-23T05:39:50;0.30;;;0.30;;
55372;SDS011;70018;47.838;16.490;2024-02-23T05:42:17;0.30;;;0.30;;
55372;SDS011;70018;47.838;16.490;2024-02-23T05:44:44;0.30;;;0.30;;
55372;SDS011;70018;47.838;16.490;2024-02-23T05:47:11;0.30;;;0.30;;
55372;SDS011;70018;47.838;16.490;2024-02-23T05:49:40;0.32;;;0.32;;
55372;SDS011;70018;47.838;16.490;2024-02-23T05:52:07;0.43;;;0.40;;
55372;SDS011;70018;47.838;16.490;2024-02-23T05:54:33;0.30;;;0.30;;
55372;SDS011;70018;47.838;16.490;2024-02-23T05:57:00;0.30;;;0.30;;
55372;SDS011;70018;47.838;16.490;2024-02-23T05:59:27;0.25;;;0.25;;
55372;SDS011;70018;47.838;16.490;2024-02-23T06:01:54;0.22;;;0.20;;
55372;SDS011;70018;47.838;16.490;2024-02-23T06:04:24;0.20;;;0.20;;
55372;SDS011;70018;47.838;16.490;2024-02-23T06:06:51;0.20;;;0.20;;
55372;SDS011;70018;47.838;16.490;2024-02-23T06:09:18;0.10;;;0.10;;
55372;SDS011;70018;47.838;16.490;2024-02-23T06:11:45;0.25;;;0.25;;
55372;SDS011;70018;47.838;16.490;2024-02-23T06:14:12;0.17;;;0.17;;
55372;SDS011;70018;47.838;16.490;2024-02-23T06:16:39;0.40;;;0.40;;
55372;SDS011;70018;47.838;16.490;2024-02-23T06:19:07;0.55;;;0.40;;
55372;SDS011;70018;47.838;16.490;2024-02-23T06:21:34;0.38;;;0.30;;
55372;SDS011;70018;47.838;16.490;2024-02-23T06:24:00;0.40;;;0.30;;
55372;SDS011;70018;47.838;16.490;2024-02-23T06:26:27;0.28;;;0.28;;
55372;SDS011;70018;47.838;16.490;2024-02-23T06:28:54;0.15;;;0.15;;
55372;SDS011;70018;47.838;16.490;2024-02-23T06:31:21;0.20;;;0.20;;
55372;SDS011;70018;47.838;16.490;2024-02-23T06:33:48;0.20;;;0.20;;
55372;SDS011;70018;47.838;16.490;2024-02-23T06:36:16;0.20;;;0.13;;
55372;SDS011;70018;47.838;16.490;2024-02-23T06:38:43;0.25;;;0.25;;
55372;SDS011;70018;47.838;16.490;2024-02-23T06:41:11;0.20;;;0.20;;
55372;SDS011;70018;47.838;16.490;2024-02-23T06:43:38;0.57;;;0.50;;
55372;SDS011;70018;47.838;16.490;2024-02-23T06:46:06;0.38;;;0.35;;
55372;SDS011;70018;47.838;16.490;2024-02-23T06:48:34;0.47;;;0.40;;
55372;SDS011;70018;47.838;16.490;2024-02-23T06:51:05;1.92;;;0.28;;
55372;SDS011;70018;47.838;16.490;2024-02-23T06:53:36;0.30;;;0.30;;
55372;SDS011;70018;47.838;16.490;2024-02-23T06:56:04;0.30;;;0.30;;
55372;SDS011;70018;47.838;16.490;2024-02-23T06:58:31;0.32;;;0.32;;
55372;SDS011;70018;47.838;16.490;2024-02-23T07:00:57;1.00;;;0.45;;
55372;SDS011;70018;47.838;16.490;2024-02-23T07:03:24;0.95;;;0.32;;
55372;SDS011;70018;47.838;16.490;2024-02-23T07:05:51;1.00;;;0.40;;
55372;SDS011;70018;47.838;16.490;2024-02-23T07:08:18;0.20;;;0.20;;
55372;SDS011;70018;47.838;16.490;2024-02-23T07:10:46;0.70;;;0.47;;
55372;SDS011;70018;47.838;16.490;2024-02-23T07:13:13;0.63;;;0.50;;
55372;SDS011;70018;47.838;16.490;2024-02-23T07:15:40;0.68;;;0.35;;
55372;SDS011;70018;47.838;16.490;2024-02-23T07:18:06;0.35;;;0.30;;
55372;SDS011;70018;47.838;16.490;2024-02-23T07:20:37;0.22;;;0.22;;
55372;SDS011;70018;47.838;16.490;2024-02-23T07:23:06;1.15;;;0.25;;
55372;SDS011;70018;47.838;16.490;2024-02-23T07:25:34;0.65;;;0.30;;
55372;SDS011;70018;47.838;16.490;2024-02-23T07:28:00;0.20;;;0.20;;
55372;SDS011;70018;47.838;16.490;2024-02-23T07:30:27;0.75;;;0.35;;
55372;SDS011;70018;47.838;16.490;2024-02-23T07:32:53;0.38;;;0.30;;
55372;SDS011;70018;47.838;16.490;2024-02-23T07:35:20;0.20;;;0.20;;
55372;SDS011;70018;47.838;16.490;2024-02-23T07:37:47;0.10;;;0.10;;
55372;SDS011;70018;47.838;16.490;2024-02-23T07:40:14;0.20;;;0.20;;
55372;SDS011;70018;47.838;16.490;2024-02-23T07:42:45;0.20;;;0.20;;
55372;SDS011;70018;47.838;16.490;2024-02-23T07:45:12;0.20;;;0.20;;
55372;SDS011;70018;47.838;16.490;2024-02-23T07:47:41;0.90;;;0.35;;
55372;SDS011;70018;47.838;16.490;2024-02-23T07:50:08;0.15;;;0.15;;
55372;SDS011;70018;47.838;16.490;2024-02-23T07:52:35;0.63;;;0.40;;
55372;SDS011;70018;47.838;16.490;2024-02-23T07:55:03;0.70;;;0.45;;
55372;SDS011;70018;47.838;16.490;2024-02-23T07:57:31;1.00;;;0.40;;
55372;SDS011;70018;47.838;16.490;2024-02-23T07:59:59;0.63;;;0.40;;
55372;SDS011;70018;47.838;16.490;2024-02-23T08:02:26;0.25;;;0.25;;
55372;SDS011;70018;47.838;16.490;2024-02-23T08:04:53;0.85;;;0.57;;
55372;SDS011;70018;47.838;16.490;2024-02-23T08:07:20;0.30;;;0.30;;
55372;SDS011;70018;47.838;16.490;2024-02-23T08:09:46;0.38;;;0.32;;
55372;SDS011;70018;47.838;16.490;2024-02-23T08:12:13;0.25;;;0.25;;
55372;SDS011;70018;47.838;16.490;2024-02-23T08:14:42;0.30;;;0.30;;
55372;SDS011;70018;47.838;16.490;2024-02-23T08:17:10;0.35;;;0.35;;
55372;SDS011;70018;47.838;16.490;2024-02-23T08:19:37;0.20;;;0.20;;
55372;SDS011;70018;47.838;16.490;2024-02-23T08:22:04;0.20;;;0.20;;
55372;SDS011;70018;47.838;16.490;2024-02-23T08:24:30;0.25;;;0.25;;
55372;SDS011;70018;47.838;16.490;2024-02-23T08:26:57;0.40;;;0.20;;
55372;SDS011;70018;47.838;16.490;2024-02-23T08:29:25;0.75;;;0.35;;
55372;SDS011;70018;47.838;16.490;2024-02-23T08:31:52;0.52;;;0.40;;
55372;SDS011;70018;47.838;16.490;2024-02-23T08:34:19;0.60;;;0.32;;
55372;SDS011;70018;47.838;16.490;2024-02-23T08:36:46;0.65;;;0.30;;
55372;SDS011;70018;47.838;16.490;2024-02-23T08:39:12;0.45;;;0.40;;
55372;SDS011;70018;47.838;16.490;2024-02-23T08:41:39;0.65;;;0.50;;
55372;SDS011;70018;47.838;16.490;2024-02-23T08:44:06;1.52;;;0.65;;
55372;SDS011;70018;47.838;16.490;2024-02-23T08:46:33;0.77;;;0.55;;
55372;SDS011;70018;47.838;16.490;2024-02-23T08:49:00;2.03;;;0.88;;
55372;SDS011;70018;47.838;16.490;2024-02-23T08:51:27;1.65;;;1.00;;
55372;SDS011;70018;47.838;16.490;2024-02-23T08:53:54;1.45;;;0.70;;
55372;SDS011;70018;47.838;16.490;2024-02-23T08:56:26;1.00;;;0.57;;
55372;SDS011;70018;47.838;16.490;2024-02-23T08:58:53;0.38;;;0.38;;
55372;SDS011;70018;47.838;16.490;2024-02-23T09:01:20;0.40;;;0.40;;
55372;SDS011;70018;47.838;16.490;2024-02-23T09:03:46;0.35;;;0.35;;
55372;SDS011;70018;47.838;16.490;2024-02-23T09:06:13;0.10;;;0.10;;
55372;SDS011;70018;47.838;16.490;2024-02-23T09:08:40;0.25;;;0.22;;
55372;SDS011;70018;47.838;16.490;2024-02-23T09:11:07;0.43;;;0.35;;
55372;SDS011;70018;47.838;16.490;2024-02-23T09:13:34;0.47;;;0.30;;
55372;SDS011;70018;47.838;16.490;2024-02-23T09:16:01;0.20;;;0.20;;
55372;SDS011;70018;47.838;16.490;2024-02-23T09:18:29;0.35;;;0.30;;
55372;SDS011;70018;47.838;16.490;2024-02-23T09:20:56;0.47;;;0.40;;
55372;SDS011;70018;47.838;16.490;2024-02-23T09:23:23;0.50;;;0.30;;
55372;SDS011;70018;47.838;16.490;2024-02-23T09:25:50;0.60;;;0.40;;
55372;SDS011;70018;47.838;16.490;2024-02-23T09:28:17;0.32;;;0.32;;
55372;SDS011;70018;47.838;16.490;2024-02-23T09:30:43;0.40;;;0.40;;
55372;SDS011;70018;47.838;16.490;2024-02-23T09:33:10;0.55;;;0.40;;
55372;SDS011;70018;47.838;16.490;2024-02-23T09:35:37;0.65;;;0.30;;
55372;SDS011;70018;47.838;16.490;2024-02-23T09:38:03;0.77;;;0.45;;
55372;SDS011;70018;47.838;16.490;2024-02-23T09:40:30;0.50;;;0.35;;
55372;SDS011;70018;47.838;16.490;2024-02-23T09:42:57;0.38;;;0.28;;
55372;SDS011;70018;47.838;16.490;2024-02-23T09:45:25;0.95;;;0.50;;
55372;SDS011;70018;47.838;16.490;2024-02-23T09:47:53;1.83;;;0.63;;
55372;SDS011;70018;47.838;16.490;2024-02-23T09:50:22;0.50;;;0.47;;
55372;SDS011;70018;47.838;16.490;2024-02-23T09:52:50;0.43;;;0.38;;
55372;SDS011;70018;47.838;16.490;2024-02-23T09:55:18;0.30;;;0.30;;
55372;SDS011;70018;47.838;16.490;2024-02-23T09:57:48;0.77;;;0.57;;
55372;SDS011;70018;47.838;16.490;2024-02-23T10:00:17;0.43;;;0.40;;
55372;SDS011;70018;47.838;16.490;2024-02-23T10:02:44;0.63;;;0.45;;
55372;SDS011;70018;47.838;16.490;2024-02-23T10:05:11;0.50;;;0.38;;
55372;SDS011;70018;47.838;16.490;2024-02-23T10:07:40;1.05;;;0.60;;
55372;SDS011;70018;47.838;16.490;2024-02-23T10:10:07;0.77;;;0.57;;
55372;SDS011;70018;47.838;16.490;2024-02-23T10:12:35;0.40;;;0.38;;
55372;SDS011;70018;47.838;16.490;2024-02-23T10:15:02;0.60;;;0.45;;
55372;SDS011;70018;47.838;16.490;2024-02-23T10:17:32;0.30;;;0.30;;
55372;SDS011;70018;47.838;16.490;2024-02-23T10:20:02;0.40;;;0.40;;
55372;SDS011;70018;47.838;16.490;2024-02-23T10:22:32;0.63;;;0.40;;
55372;SDS011;70018;47.838;16.490;2024-02-23T10:24:59;0.55;;;0.45;;
55372;SDS011;70018;47.838;16.490;2024-02-23T10:27:26;0.55;;;0.30;;
55372;SDS011;70018;47.838;16.490;2024-02-23T10:29:54;0.20;;;0.20;;
55372;SDS011;70018;47.838;16.490;2024-02-23T10:32:21;0.17;;;0.17;;
55372;SDS011;70018;47.838;16.490;2024-02-23T10:34:49;0.25;;;0.25;;
55372;SDS011;70018;47.838;16.490;2024-02-23T10:37:19;0.35;;;0.30;;
55372;SDS011;70018;47.838;16.490;2024-02-23T10:39:48;0.22;;;0.22;;
55372;SDS011;70018;47.838;16.490;2024-02-23T10:42:20;0.30;;;0.30;;
55372;SDS011;70018;47.838;16.490;2024-02-23T10:44:51;0.52;;;0.40;;
55372;SDS011;70018;47.838;16.490;2024-02-23T10:47:19;0.20;;;0.20;;
55372;SDS011;70018;47.838;16.490;2024-02-23T10:49:48;1.00;;;0.40;;
55372;SDS011;70018;47.838;16.490;2024-02-23T10:52:15;1.20;;;0.40;;
55372;SDS011;70018;47.838;16.490;2024-02-23T10:54:45;0.25;;;0.25;;
55372;SDS011;70018;47.838;16.490;2024-02-23T10:57:13;0.80;;;0.22;;
55372;SDS011;70018;47.838;16.490;2024-02-23T10:59:46;0.25;;;0.20;;
55372;SDS011;70018;47.838;16.490;2024-02-23T11:02:14;0.28;;;0.28;;
55372;SDS011;70018;47.838;16.490;2024-02-23T11:04:46;0.20;;;0.20;;
55372;SDS011;70018;47.838;16.490;2024-02-23T11:07:21;0.38;;;0.38;;
55372;SDS011;70018;47.838;16.490;2024-02-23T11:09:49;0.98;;;0.32;;
55372;SDS011;70018;47.838;16.490;2024-02-23T11:12:22;0.28;;;0.20;;
55372;SDS011;70018;47.838;16.490;2024-02-23T11:14:56;0.30;;;0.20;;
55372;SDS011;70018;47.838;16.490;2024-02-23T11:17:28;0.30;;;0.30;;
55372;SDS011;70018;47.838;16.490;2024-02-23T11:19:57;0.13;;;0.13;;
55372;SDS011;70018;47.838;16.490;2024-02-23T11:22:27;0.17;;;0.17;;
55372;SDS011;70018;47.838;16.490;2024-02-23T11:25:04;0.20;;;0.20;;
55372;SDS011;70018;47.838;16.490;2024-02-23T11:27:33;0.20;;;0.20;;
55372;SDS011;70018;47.838;16.490;2024-02-23T11:32:38;0.30;;;0.25;;
55372;SDS011;70018;47.838;16.490;2024-02-23T11:35:10;0.38;;;0.20;;
55372;SDS011;70018;47.838;16.490;2024-02-23T11:37:48;0.30;;;0.20;;
55372;SDS011;70018;47.838;16.490;2024-02-23T11:40:23;0.22;;;0.22;;
55372;SDS011;70018;47.838;16.490;2024-02-23T11:42:51;0.32;;;0.20;;
55372;SDS011;70018;47.838;16.490;2024-02-23T11:45:18;0.20;;;0.20;;
55372;SDS011;70018;47.838;16.490;2024-02-23T11:47:45;0.22;;;0.22;;
55372;SDS011;70018;47.838;16.490;2024-02-23T11:50:12;3.53;;;0.35;;
55372;SDS011;70018;47.838;16.490;2024-02-23T11:52:41;0.38;;;0.38;;
55372;SDS011;70018;47.838;16.490;2024-02-23T11:55:08;0.60;;;0.30;;
55372;SDS011;70018;47.838;16.490;2024-02-23T11:57:35;0.10;;;0.10;;
55372;SDS011;70018;47.838;16.490;2024-02-23T12:00:13;0.20;;;0.20;;
55372;SDS011;70018;47.838;16.490;2024-02-23T12:02:40;0.30;;;0.30;;
55372;SDS011;70018;47.838;16.490;2024-02-23T12:05:07;0.75;;;0.25;;
55372;SDS011;70018;47.838;16.490;2024-02-23T12:07:34;0.57;;;0.30;;
55372;SDS011;70018;47.838;16.490;2024-02-23T12:10:02;0.30;;;0.30;;
55372;SDS011;70018;47.838;16.490;2024-02-23T12:12:31;0.20;;;0.20;;
55372;SDS011;70018;47.838;16.490;2024-02-23T12:14:58;0.15;;;0.15;;
55372;SDS011;70018;47.838;16.490;2024-02-23T12:17:25;0.30;;;0.10;;
55372;SDS011;70018;47.838;16.490;2024-02-23T12:19:59;0.13;;;0.13;;
55372;SDS011;70018;47.838;16.490;2024-02-23T12:22:26;1.17;;;0.40;;
55372;SDS011;70018;47.838;16.490;2024-02-23T12:24:56;0.35;;;0.30;;
55372;SDS011;70018;47.838;16.490;2024-02-23T12:27:23;0.45;;;0.25;;
55372;SDS011;70018;47.838;16.490;2024-02-23T12:29:52;0.20;;;0.20;;
55372;SDS011;70018;47.838;16.490;2024-02-23T12:32:22;1.80;;;0.20;;
55372;SDS011;70018;47.838;16.490;2024-02-23T12:34:49;0.30;;;0.10;;
55372;SDS011;70018;47.838;16.490;2024-02-23T12:37:17;0.25;;;0.25;;
55372;SDS011;70018;47.838;16.490;2024-02-23T12:39:44;0.22;;;0.22;;
55372;SDS011;70018;47.838;16.490;2024-02-23T12:42:11;0.38;;;0.30;;
55372;SDS011;70018;47.838;16.490;2024-02-23T12:44:38;0.25;;;0.20;;
55372;SDS011;70018;47.838;16.490;2024-02-23T12:47:04;0.20;;;0.20;;
55372;SDS011;70018;47.838;16.490;2024-02-23T12:49:31;0.25;;;0.25;;
55372;SDS011;70018;47.838;16.490;2024-02-23T12:51:58;0.80;;;0.40;;
55372;SDS011;70018;47.838;16.490;2024-02-23T12:54:25;0.35;;;0.30;;
55372;SDS011;70018;47.838;16.490;2024-02-23T12:56:52;0.40;;;0.40;;
55372;SDS011;70018;47.838;16.490;2024-02-23T12:59:18;0.38;;;0.30;;
55372;SDS011;70018;47.838;16.490;2024-02-23T13:01:45;0.30;;;0.30;;
55372;SDS011;70018;47.838;16.490;2024-02-23T13:04:16;0.20;;;0.20;;
55372;SDS011;70018;47.838;16.490;2024-02-23T13:06:43;0.22;;;0.20;;
55372;SDS011;70018;47.838;16.490;2024-02-23T13:09:09;0.20;;;0.20;;
55372;SDS011;70018;47.838;16.490;2024-02-23T13:11:38;0.40;;;0.30;;
55372;SDS011;70018;47.838;16.490;2024-02-23T13:14:06;0.20;;;0.20;;
55372;SDS011;70018;47.838;16.490;2024-02-23T13:16:33;0.30;;;0.30;;
55372;SDS011;70018;47.838;16.490;2024-02-23T13:18:59;0.17;;;0.10;;
55372;SDS011;70018;47.838;16.490;2024-02-23T13:21:26;0.40;;;0.30;;
55372;SDS011;70018;47.838;16.490;2024-02-23T13:23:53;0.13;;;0.10;;
55372;SDS011;70018;47.838;16.490;2024-02-23T13:26:20;0.20;;;0.20;;
55372;SDS011;70018;47.838;16.490;2024-02-23T13:28:46;0.50;;;0.30;;
55372;SDS011;70018;47.838;16.490;2024-02-23T13:31:13;0.30;;;0.20;;
55372;SDS011;70018;47.838;16.490;2024-02-23T13:33:41;0.20;;;0.20;;
55372;SDS011;70018;47.838;16.490;2024-02-23T13:36:08;0.35;;;0.30;;
55372;SDS011;70018;47.838;16.490;2024-02-23T13:38:35;0.45;;;0.30;;
55372;SDS011;70018;47.838;16.490;2024-02-23T13:41:05;0.40;;;0.40;;
55372;SDS011;70018;47.838;16.490;2024-02-23T13:43:32;0.38;;;0.30;;
55372;SDS011;70018;47.838;16.490;2024-02-23T13:46:00;0.65;;;0.55;;
55372;SDS011;70018;47.838;16.490;2024-02-23T13:48:26;0.43;;;0.40;;
55372;SDS011;70018;47.838;16.490;2024-02-23T13:50:53;0.20;;;0.20;;
55372;SDS011;70018;47.838;16.490;2024-02-23T13:53:20;0.50;;;0.35;;
55372;SDS011;70018;47.838;16.490;2024-02-23T13:55:48;0.88;;;0.22;;
55372;SDS011;70018;47.838;16.490;2024-02-23T13:58:16;0.30;;;0.30;;
55372;SDS011;70018;47.838;16.490;2024-02-23T14:00:43;0.20;;;0.20;;
55372;SDS011;70018;47.838;16.490;2024-02-23T14:03:11;0.20;;;0.17;;
55372;SDS011;70018;47.838;16.490;2024-02-23T14:05:48;0.28;;;0.20;;
55372;SDS011;70018;47.838;16.490;2024-02-23T14:08:15;0.30;;;0.30;;
55372;SDS011;70018;47.838;16.490;2024-02-23T14:10:41;0.17;;;0.17;;
55372;SDS011;70018;47.838;16.490;2024-02-23T14:13:09;0.43;;;0.40;;
55372;SDS011;70018;47.838;16.490;2024-02-23T14:15:37;0.95;;;0.47;;
55372;SDS011;70018;47.838;16.490;2024-02-23T14:18:03;0.45;;;0.40;;
55372;SDS011;70018;47.838;16.490;2024-02-23T14:20:30;0.65;;;0.52;;
55372;SDS011;70018;47.838;16.490;2024-02-23T14:22:57;0.45;;;0.40;;
55372;SDS011;70018;47.838;16.490;2024-02-23T14:25:24;0.30;;;0.30;;
55372;SDS011;70018;47.838;16.490;2024-02-23T14:27:51;0.98;;;0.63;;
55372;SDS011;70018;47.838;16.490;2024-02-23T14:30:17;0.73;;;0.50;;
55372;SDS011;70018;47.838;16.490;2024-02-23T14:32:44;0.30;;;0.30;;
55372;SDS011;70018;47.838;16.490;2024-02-23T14:35:11;1.95;;;0.90;;
55372;SDS011;70018;47.838;16.490;2024-02-23T14:37:38;1.35;;;0.70;;